createdAt,value
2022-10-28T00:01:27.835Z,7.42
2022-10-28T00:04:00.796Z,7.60
2022-10-28T00:06:35.809Z,7.27
2022-10-28T00:09:08.334Z,7.29
2022-10-28T00:11:39.956Z,7.23
2022-10-28T00:14:10.394Z,7.39
2022-10-28T00:16:38.827Z,7.42
2022-10-28T00:19:09.775Z,7.44
2022-10-28T00:21:40.232Z,7.38
2022-10-28T00:24:10.320Z,7.48
2022-10-28T00:26:42.476Z,7.48
2022-10-28T00:29:15.054Z,7.13
2022-10-28T00:31:44.233Z,7.45
2022-10-28T00:34:16.553Z,7.33
2022-10-28T00:36:47.612Z,7.25
2022-10-28T00:39:24.695Z,7.12
2022-10-28T00:42:03.856Z,6.96
2022-10-28T00:44:56.650Z,6.98
2022-10-28T00:48:00.959Z,7.23
2022-10-28T00:50:52.125Z,7.25
2022-10-28T00:53:28.562Z,6.96
2022-10-28T00:55:59.693Z,7.02
2022-10-28T00:58:28.333Z,6.89
2022-10-28T01:00:56.649Z,6.78
2022-10-28T01:03:25.414Z,7.14
2022-10-28T01:05:54.085Z,6.80
2022-10-28T01:08:22.220Z,6.90
2022-10-28T01:10:55.864Z,7.02
2022-10-28T01:13:57.041Z,7.03
2022-10-28T01:16:52.784Z,6.97
2022-10-28T01:19:52.134Z,7.21
2022-10-28T01:22:34.109Z,7.20
2022-10-28T01:25:45.784Z,7.31
2022-10-28T01:28:50.801Z,7.38
2022-10-28T01:31:51.453Z,7.39
2022-10-28T01:34:51.272Z,7.12
2022-10-28T01:37:52.155Z,7.37
2022-10-28T01:40:49.384Z,7.43
2022-10-28T01:43:28.522Z,7.42
2022-10-28T01:46:15.360Z,7.09
2022-10-28T01:49:00.289Z,7.32
2022-10-28T01:51:43.447Z,7.05
2022-10-28T01:54:15.448Z,7.18
2022-10-28T01:56:46.020Z,7.10
2022-10-28T01:59:20.178Z,7.06
2022-10-28T02:01:48.475Z,7.11
2022-10-28T02:04:16.754Z,6.66
2022-10-28T02:06:49.206Z,6.78
2022-10-28T02:09:41.454Z,7.04
2022-10-28T02:12:39.056Z,7.09
2022-10-28T02:15:25.251Z,6.83
2022-10-28T02:18:42.443Z,6.96
2022-10-28T02:21:32.626Z,6.62
2022-10-28T02:24:08.231Z,7.00
2022-10-28T02:26:47.605Z,6.78
2022-10-28T02:29:41.355Z,7.03
2022-10-28T02:32:17.109Z,7.13
2022-10-28T02:34:50.353Z,7.25
2022-10-28T02:37:28.662Z,7.23
2022-10-28T02:40:02.310Z,7.14
2022-10-28T02:42:37.273Z,7.04
2022-10-28T02:45:29.992Z,7.24
2022-10-28T02:48:03.787Z,7.15
2022-10-28T02:50:38.522Z,7.21
2022-10-28T02:53:21.105Z,6.83
2022-10-28T02:55:57.652Z,6.84
2022-10-28T02:58:25.951Z,6.91
2022-10-28T03:00:54.067Z,7.02
2022-10-28T03:03:22.160Z,6.85
2022-10-28T03:05:50.234Z,6.80
2022-10-28T03:08:18.094Z,7.05
2022-10-28T03:10:46.344Z,7.15
2022-10-28T03:13:14.487Z,6.92
2022-10-28T03:15:42.406Z,7.10
2022-10-28T03:18:10.358Z,6.78
2022-10-28T03:20:38.369Z,7.08
2022-10-28T03:23:06.802Z,6.99
2022-10-28T03:25:35.262Z,7.06
2022-10-28T03:28:03.275Z,6.98
2022-10-28T03:30:31.216Z,7.12
2022-10-28T03:32:59.333Z,7.20
2022-10-28T03:35:27.351Z,7.23
2022-10-28T03:37:55.201Z,7.23
2022-10-28T03:40:23.414Z,7.27
2022-10-28T03:42:51.844Z,7.27
2022-10-28T03:45:20.770Z,7.43
2022-10-28T03:47:49.448Z,7.13
2022-10-28T03:50:17.623Z,7.37
2022-10-28T03:52:45.587Z,7.38
2022-10-28T03:55:13.962Z,7.38
2022-10-28T03:57:41.976Z,7.44
2022-10-28T04:00:10.545Z,7.45
2022-10-28T04:02:41.628Z,7.49
2022-10-28T04:05:09.773Z,7.52
2022-10-28T04:07:37.629Z,7.48
2022-10-28T04:10:06.602Z,7.54
2022-10-28T04:12:34.920Z,7.55
2022-10-28T04:15:03.384Z,7.53
2022-10-28T04:17:31.438Z,7.27
2022-10-28T04:19:59.289Z,7.38
2022-10-28T04:22:27.207Z,7.59
2022-10-28T04:24:55.173Z,7.66
2022-10-28T04:27:22.985Z,7.70
2022-10-28T04:29:50.993Z,7.68
2022-10-28T04:32:19.176Z,7.70
2022-10-28T04:34:47.015Z,7.69
2022-10-28T04:37:20.357Z,7.72
2022-10-28T04:39:48.864Z,7.66
2022-10-28T04:42:16.967Z,7.49
2022-10-28T04:44:44.865Z,7.25
2022-10-28T04:47:12.820Z,7.48
2022-10-28T04:49:41.367Z,7.80
2022-10-28T04:52:12.016Z,7.76
2022-10-28T04:54:43.162Z,7.66
2022-10-28T04:57:11.150Z,7.83
2022-10-28T04:59:39.055Z,7.88
2022-10-28T05:02:07.563Z,7.92
2022-10-28T05:04:35.462Z,7.72
2022-10-28T05:07:04.513Z,7.99
2022-10-28T05:09:32.574Z,7.74
2022-10-28T05:12:00.482Z,8.09
2022-10-28T05:14:28.418Z,8.10
2022-10-28T05:16:56.715Z,8.13
2022-10-28T05:19:24.652Z,7.90
2022-10-28T05:21:53.658Z,8.15
2022-10-28T05:24:21.973Z,8.14
2022-10-28T05:26:51.005Z,8.18
2022-10-28T05:29:19.749Z,8.12
2022-10-28T05:31:47.784Z,7.95
2022-10-28T05:34:15.654Z,7.92
2022-10-28T05:36:43.656Z,8.19
2022-10-28T05:39:13.968Z,8.24
2022-10-28T05:41:41.852Z,8.19
2022-10-28T05:44:09.819Z,8.00
2022-10-28T05:46:37.929Z,8.01
2022-10-28T05:49:05.845Z,8.30
2022-10-28T05:51:33.666Z,7.94
2022-10-28T05:54:02.365Z,7.99
2022-10-28T05:56:30.201Z,8.35
2022-10-28T05:58:58.290Z,8.38
2022-10-28T06:01:26.323Z,8.39
2022-10-28T06:03:54.330Z,8.25
2022-10-28T06:06:22.250Z,8.52
2022-10-28T06:08:50.358Z,8.61
2022-10-28T06:11:17.090Z,8.67
2022-10-28T06:13:45.020Z,8.73
2022-10-28T06:16:13.596Z,8.81
2022-10-28T06:18:41.646Z,8.77
2022-10-28T06:21:10.045Z,8.75
2022-10-28T06:23:38.188Z,8.75
2022-10-28T06:26:06.529Z,8.76
2022-10-28T06:28:34.475Z,8.59
2022-10-28T06:31:07.247Z,8.71
2022-10-28T06:33:35.692Z,9.04
2022-10-28T06:36:03.951Z,8.91
2022-10-28T06:38:31.907Z,9.12
2022-10-28T06:40:59.817Z,9.16
2022-10-28T06:43:27.752Z,8.86
2022-10-28T06:46:04.390Z,9.06
2022-10-28T06:48:34.479Z,9.01
2022-10-28T06:51:02.659Z,9.29
2022-10-28T06:53:30.682Z,9.31
2022-10-28T06:55:59.541Z,9.23
2022-10-28T06:58:27.608Z,9.29
2022-10-28T07:00:55.940Z,8.57
2022-10-28T07:03:23.957Z,9.13
2022-10-28T07:05:51.883Z,9.38
2022-10-28T07:08:20.218Z,9.54
2022-10-28T07:11:00.049Z,9.63
2022-10-28T07:13:28.114Z,9.42
2022-10-28T07:15:59.545Z,9.87
2022-10-28T07:18:30.225Z,9.68
2022-10-28T07:21:02.261Z,10.09
2022-10-28T07:23:34.449Z,9.91
2022-10-28T07:26:02.359Z,10.13
2022-10-28T07:28:30.289Z,10.20
2022-10-28T07:31:02.955Z,10.41
2022-10-28T07:33:31.182Z,10.54
2022-10-28T07:35:59.130Z,10.74
2022-10-28T07:38:27.250Z,10.73
2022-10-28T07:40:55.360Z,11.17
2022-10-28T07:43:23.291Z,11.04
2022-10-28T07:46:00.618Z,10.95
2022-10-28T07:48:28.507Z,11.51
2022-10-28T07:50:56.517Z,11.66
2022-10-28T07:53:27.711Z,11.79
2022-10-28T07:56:06.378Z,11.96
2022-10-28T07:58:36.652Z,12.18
2022-10-28T08:01:08.706Z,12.16
2022-10-28T08:03:39.008Z,12.30
2022-10-28T08:06:16.376Z,12.38
2022-10-28T08:08:46.239Z,12.74
2022-10-28T08:11:16.959Z,12.82
2022-10-28T08:13:45.258Z,13.04
2022-10-28T08:16:13.534Z,12.91
2022-10-28T08:18:41.741Z,13.21
2022-10-28T08:21:11.251Z,13.25
2022-10-28T08:23:39.790Z,13.03
2022-10-28T08:26:08.522Z,13.63
2022-10-28T08:28:36.351Z,13.74
2022-10-28T08:31:09.564Z,13.81
2022-10-28T08:33:45.291Z,13.87
2022-10-28T08:36:16.204Z,13.90
2022-10-28T08:38:46.329Z,14.34
2022-10-28T08:42:27.726Z,14.59
2022-10-28T08:45:38.609Z,14.60
2022-10-28T08:48:35.045Z,14.74
2022-10-28T08:51:22.604Z,14.46
2022-10-28T08:54:04.073Z,14.63
2022-10-28T08:56:46.339Z,14.42
2022-10-28T08:59:24.559Z,14.62
2022-10-28T09:01:59.888Z,14.74
2022-10-28T09:04:43.607Z,14.81
2022-10-28T09:07:34.053Z,14.73
2022-10-28T09:10:02.241Z,15.17
2022-10-28T09:12:44.433Z,15.48
2022-10-28T09:15:33.178Z,15.69
2022-10-28T09:18:31.027Z,15.79
2022-10-28T09:21:05.283Z,15.81
2022-10-28T09:23:43.164Z,15.59
2022-10-28T09:27:12.194Z,15.67
2022-10-28T09:29:50.587Z,15.92
2022-10-28T09:33:05.453Z,16.21
2022-10-28T09:35:41.427Z,16.33
2022-10-28T09:38:19.698Z,16.20
2022-10-28T09:41:02.833Z,16.31
2022-10-28T09:43:35.662Z,16.39
2022-10-28T09:46:16.563Z,16.44
2022-10-28T09:48:48.121Z,15.99
2022-10-28T09:51:52.860Z,16.99
2022-10-28T09:54:30.830Z,17.39
2022-10-28T09:56:59.131Z,17.73
2022-10-28T09:59:27.413Z,17.45
2022-10-28T10:01:55.680Z,17.51
2022-10-28T10:04:27.193Z,17.34
2022-10-28T10:07:08.609Z,17.19
2022-10-28T10:09:39.209Z,17.49
2022-10-28T10:12:10.140Z,17.08
2022-10-28T10:14:52.288Z,17.29
2022-10-28T10:17:27.421Z,17.16
2022-10-28T10:20:10.656Z,16.85
2022-10-28T10:22:44.506Z,17.10
2022-10-28T10:25:19.365Z,17.11
2022-10-28T10:27:59.262Z,16.74
2022-10-28T10:30:53.763Z,17.00
2022-10-28T10:33:40.531Z,16.85
2022-10-28T10:36:11.351Z,16.65
2022-10-28T10:38:57.659Z,16.61
2022-10-28T10:41:43.736Z,16.45
2022-10-28T10:44:33.856Z,16.48
2022-10-28T10:47:05.959Z,16.22
2022-10-28T10:49:38.285Z,15.94
2022-10-28T10:52:23.876Z,16.30
2022-10-28T10:55:19.442Z,16.03
2022-10-28T10:57:48.827Z,16.35
2022-10-28T11:00:20.874Z,16.52
2022-10-28T11:02:52.265Z,16.40
2022-10-28T11:05:29.023Z,16.68
2022-10-28T11:08:06.804Z,16.76
2022-10-28T11:10:35.559Z,16.80
2022-10-28T11:13:26.629Z,16.96
2022-10-28T11:16:06.931Z,17.26
2022-10-28T11:18:46.815Z,17.19
2022-10-28T11:21:28.807Z,17.55
2022-10-28T11:24:05.511Z,17.97
2022-10-28T11:26:45.295Z,18.02
2022-10-28T11:29:16.020Z,17.94
2022-10-28T11:32:11.232Z,18.28
2022-10-28T11:35:20.499Z,18.12
2022-10-28T11:37:57.774Z,17.75
2022-10-28T11:40:34.637Z,17.41
2022-10-28T11:43:35.161Z,17.11
2022-10-28T11:46:32.149Z,17.15
2022-10-28T11:49:38.301Z,17.29
2022-10-28T11:52:52.320Z,17.69
2022-10-28T11:55:47.031Z,18.05
2022-10-28T11:58:42.718Z,17.93
2022-10-28T12:01:52.446Z,17.92
2022-10-28T12:05:04.401Z,18.04
2022-10-28T12:08:07.557Z,18.05
2022-10-28T12:10:45.809Z,17.86
2022-10-28T12:13:44.199Z,17.45
2022-10-28T12:16:21.617Z,17.89
2022-10-28T12:19:04.254Z,17.69
2022-10-28T12:21:43.886Z,17.24
2022-10-28T12:24:19.710Z,17.35
2022-10-28T12:27:05.872Z,17.36
2022-10-28T12:29:41.415Z,17.29
2022-10-28T12:32:15.283Z,17.51
2022-10-28T12:35:14.983Z,17.76
2022-10-28T12:38:09.031Z,17.82
2022-10-28T12:40:47.017Z,17.50
2022-10-28T12:43:34.787Z,17.83
2022-10-28T12:46:03.995Z,17.86
2022-10-28T12:48:42.816Z,18.03
2022-10-28T12:51:38.934Z,18.19
2022-10-28T12:54:32.338Z,18.21
2022-10-28T12:57:15.279Z,17.97
2022-10-28T12:59:59.029Z,17.92
2022-10-28T13:02:41.490Z,18.01
2022-10-28T13:05:26.426Z,18.10
2022-10-28T13:08:09.203Z,18.17
2022-10-28T13:11:07.998Z,18.07
2022-10-28T13:14:05.137Z,18.00
2022-10-28T13:17:24.078Z,17.95
2022-10-28T13:20:15.901Z,18.00
2022-10-28T13:23:11.830Z,18.21
2022-10-28T13:25:59.919Z,18.15
2022-10-28T13:28:34.593Z,17.73
2022-10-28T13:31:08.034Z,18.05
2022-10-28T13:33:38.465Z,17.88
2022-10-28T13:36:30.482Z,17.36
2022-10-28T13:39:01.916Z,17.70
2022-10-28T13:41:31.691Z,17.87
2022-10-28T13:44:20.592Z,17.58
2022-10-28T13:47:13.422Z,17.82
2022-10-28T13:50:09.975Z,17.70
2022-10-28T13:52:46.931Z,17.69
2022-10-28T13:55:25.683Z,17.34
2022-10-28T13:58:04.777Z,17.50
2022-10-28T14:00:32.838Z,17.43
2022-10-28T14:03:02.613Z,17.42
2022-10-28T14:05:36.996Z,17.38
2022-10-28T14:08:17.355Z,17.18
2022-10-28T14:11:24.872Z,17.31
2022-10-28T14:14:01.266Z,17.32
2022-10-28T14:16:35.148Z,17.16
2022-10-28T14:19:21.825Z,17.37
2022-10-28T14:22:09.353Z,17.33
2022-10-28T14:24:43.077Z,17.34
2022-10-28T14:27:15.541Z,17.20
2022-10-28T14:29:50.745Z,17.18
2022-10-28T14:32:33.941Z,17.16
2022-10-28T14:35:10.505Z,16.98
2022-10-28T14:38:00.270Z,16.89
2022-10-28T14:40:52.160Z,16.60
2022-10-28T14:43:50.975Z,16.48
2022-10-28T14:47:28.140Z,16.21
2022-10-28T14:50:08.142Z,15.89
2022-10-28T14:52:37.787Z,15.83
2022-10-28T14:55:19.622Z,15.83
2022-10-28T14:57:47.797Z,15.10
2022-10-28T15:00:21.010Z,15.53
2022-10-28T15:02:50.454Z,15.68
2022-10-28T15:05:21.870Z,15.64
2022-10-28T15:07:50.618Z,15.46
2022-10-28T15:10:31.776Z,15.01
2022-10-28T15:13:01.420Z,15.30
2022-10-28T15:15:33.235Z,15.19
2022-10-28T15:18:02.056Z,15.04
2022-10-28T15:20:35.149Z,15.08
2022-10-28T15:23:20.768Z,14.99
2022-10-28T15:26:15.970Z,14.85
2022-10-28T15:28:44.207Z,14.57
2022-10-28T15:31:12.052Z,14.67
2022-10-28T15:33:42.336Z,14.69
2022-10-28T15:36:18.225Z,14.42
2022-10-28T15:38:59.818Z,14.59
2022-10-28T15:41:39.314Z,14.29
2022-10-28T15:44:25.148Z,14.46
2022-10-28T15:46:55.480Z,14.21
2022-10-28T15:49:40.669Z,13.98
2022-10-28T15:52:17.905Z,14.19
2022-10-28T15:55:00.605Z,13.61
2022-10-28T15:57:36.060Z,13.92
2022-10-28T16:00:25.532Z,13.93
2022-10-28T16:03:05.679Z,13.89
2022-10-28T16:05:33.709Z,13.81
2022-10-28T16:08:05.569Z,13.73
2022-10-28T16:10:46.861Z,13.17
2022-10-28T16:13:30.286Z,13.47
2022-10-28T16:16:14.618Z,13.39
2022-10-28T16:18:47.921Z,13.26
2022-10-28T16:21:27.361Z,12.67
2022-10-28T16:24:02.063Z,13.27
2022-10-28T16:26:32.645Z,13.30
2022-10-28T16:29:00.692Z,13.28
2022-10-28T16:31:30.990Z,13.22
2022-10-28T16:34:00.040Z,12.86
2022-10-28T16:36:28.754Z,13.03
2022-10-28T16:38:56.701Z,12.93
2022-10-28T16:41:25.403Z,12.70
2022-10-28T16:43:53.364Z,12.89
2022-10-28T16:46:21.362Z,12.59
2022-10-28T16:48:49.571Z,12.93
2022-10-28T16:51:18.322Z,12.76
2022-10-28T16:53:51.099Z,12.74
2022-10-28T16:56:19.196Z,12.51
2022-10-28T16:58:47.168Z,12.55
2022-10-28T17:01:21.454Z,12.54
2022-10-28T17:03:49.609Z,12.49
2022-10-28T17:06:17.553Z,12.03
2022-10-28T17:11:33.756Z,12.46
2022-10-28T17:14:01.964Z,12.76
2022-10-28T17:16:29.947Z,12.83
2022-10-28T17:18:57.965Z,12.67
2022-10-28T17:21:26.275Z,12.82
2022-10-28T17:23:54.635Z,12.88
2022-10-28T17:26:22.627Z,12.57
2022-10-28T17:28:55.429Z,12.82
2022-10-28T17:31:25.180Z,12.79
2022-10-28T17:33:55.111Z,12.80
2022-10-28T17:36:23.803Z,12.69
2022-10-28T17:38:51.757Z,12.59
2022-10-28T17:41:20.031Z,12.43
2022-10-28T17:43:48.406Z,12.36
2022-10-28T17:46:16.345Z,12.33
2022-10-28T17:48:44.395Z,11.90
2022-10-28T17:51:13.175Z,12.17
2022-10-28T17:53:41.084Z,12.16
2022-10-28T17:56:09.681Z,12.22
2022-10-28T17:58:38.591Z,12.07
2022-10-28T18:01:08.632Z,12.26
2022-10-28T18:03:39.206Z,12.33
2022-10-28T18:06:11.974Z,12.33
2022-10-28T18:08:43.153Z,12.41
2022-10-28T18:11:14.456Z,12.42
2022-10-28T18:13:49.983Z,12.40
2022-10-28T18:16:22.288Z,12.14
2022-10-28T18:18:51.728Z,12.46
2022-10-28T18:21:20.451Z,12.50
2022-10-28T18:23:53.494Z,12.51
2022-10-28T18:26:22.202Z,12.55
2022-10-28T18:28:50.113Z,12.38
2022-10-28T18:31:20.516Z,12.33
2022-10-28T18:33:49.314Z,12.61
2022-10-28T18:36:24.678Z,12.37
2022-10-28T18:38:53.204Z,12.10
2022-10-28T18:41:24.258Z,12.49
2022-10-28T18:44:01.670Z,12.18
2022-10-28T18:46:32.939Z,12.23
2022-10-28T18:49:04.860Z,12.48
2022-10-28T18:51:42.467Z,12.53
2022-10-28T18:54:10.697Z,12.57
2022-10-28T18:56:38.839Z,12.59
2022-10-28T18:59:06.823Z,12.39
2022-10-28T19:01:35.240Z,12.46
2022-10-28T19:04:05.494Z,12.51
2022-10-28T19:06:34.513Z,12.62
2022-10-28T19:09:04.979Z,12.64
2022-10-28T19:11:34.587Z,12.65
2022-10-28T19:14:08.660Z,12.65
2022-10-28T19:16:36.721Z,12.63
2022-10-28T19:19:05.963Z,12.56
2022-10-28T19:21:34.940Z,12.58
2022-10-28T19:24:03.727Z,12.56
2022-10-28T19:26:33.568Z,12.87
2022-10-28T19:29:01.621Z,12.98
2022-10-28T19:31:30.947Z,12.69
2022-10-28T19:33:58.931Z,12.75
2022-10-28T19:36:29.700Z,12.90
2022-10-28T19:38:58.471Z,12.79
2022-10-28T19:41:29.499Z,12.77
2022-10-28T19:44:04.554Z,12.55
2022-10-28T19:46:35.727Z,12.52
2022-10-28T19:49:06.964Z,12.81
2022-10-28T19:51:40.889Z,12.81
2022-10-28T19:54:12.395Z,12.83
2022-10-28T19:56:42.822Z,12.62
2022-10-28T19:59:11.197Z,12.84
2022-10-28T20:01:41.135Z,12.82
2022-10-28T20:04:10.386Z,12.57
2022-10-28T20:06:40.824Z,12.78
2022-10-28T20:09:09.427Z,12.53
2022-10-28T20:11:39.235Z,12.83
2022-10-28T20:14:11.991Z,12.85
2022-10-28T20:16:43.133Z,12.78
2022-10-28T20:19:11.967Z,12.84
2022-10-28T20:21:40.678Z,12.85
2022-10-28T20:24:09.001Z,12.77
2022-10-28T20:26:40.941Z,12.72
2022-10-28T20:29:10.139Z,12.62
2022-10-28T20:31:39.270Z,11.88
2022-10-28T20:34:08.705Z,12.33
2022-10-28T20:36:44.130Z,12.17
2022-10-28T20:39:21.208Z,11.90
2022-10-28T20:41:51.286Z,11.46
2022-10-28T20:44:19.362Z,11.29
2022-10-28T20:46:54.347Z,11.57
2022-10-28T20:49:24.149Z,11.99
2022-10-28T20:51:52.379Z,11.78
2022-10-28T20:54:20.519Z,11.99
2022-10-28T20:56:49.767Z,11.86
2022-10-28T20:59:36.572Z,11.84
2022-10-28T21:02:04.803Z,11.68
2022-10-28T21:04:33.547Z,11.78
2022-10-28T21:07:01.484Z,11.68
2022-10-28T21:09:29.786Z,11.65
2022-10-28T21:11:58.079Z,11.65
2022-10-28T21:14:26.133Z,11.62
2022-10-28T21:16:54.436Z,11.11
2022-10-28T21:19:22.815Z,11.42
2022-10-28T21:21:50.783Z,11.33
2022-10-28T21:24:18.708Z,11.12
2022-10-28T21:26:48.436Z,11.35
2022-10-28T21:29:20.307Z,11.39
2022-10-28T21:31:48.308Z,11.30
2022-10-28T21:34:16.254Z,11.30
2022-10-28T21:36:44.384Z,11.22
2022-10-28T21:39:12.284Z,11.15
2022-10-28T21:41:40.267Z,11.12
2022-10-28T21:44:10.055Z,10.90
2022-10-28T21:46:37.945Z,11.10
2022-10-28T21:49:05.789Z,11.20
2022-10-28T21:51:37.348Z,11.20
2022-10-28T21:54:05.512Z,11.17
2022-10-28T21:56:33.535Z,11.12
2022-10-28T21:59:01.611Z,11.17
2022-10-28T22:01:29.839Z,10.99
2022-10-28T22:03:57.954Z,11.13
2022-10-28T22:06:26.872Z,11.17
2022-10-28T22:08:55.902Z,11.43
2022-10-28T22:11:24.368Z,11.37
2022-10-28T22:13:58.962Z,11.29
2022-10-28T22:16:29.295Z,11.58
2022-10-28T22:19:00.145Z,11.63
2022-10-28T22:21:31.950Z,11.52
2022-10-28T22:24:00.136Z,11.59
2022-10-28T22:26:30.670Z,11.48
2022-10-28T22:28:59.111Z,11.41
2022-10-28T22:31:31.707Z,11.45
2022-10-28T22:34:00.899Z,11.45
2022-10-28T22:36:30.247Z,10.94
2022-10-28T22:38:59.069Z,11.09
2022-10-28T22:41:30.570Z,11.19
2022-10-28T22:44:01.849Z,11.39
2022-10-28T22:46:33.581Z,11.21
2022-10-28T22:49:01.442Z,11.33
2022-10-28T22:51:29.252Z,11.49
2022-10-28T22:53:57.537Z,11.20
2022-10-28T22:56:27.561Z,11.06
2022-10-28T22:58:58.516Z,11.29
2022-10-28T23:01:28.586Z,11.27
2022-10-28T23:03:56.886Z,10.99
2022-10-28T23:06:27.274Z,11.31
2022-10-28T23:08:55.748Z,11.33
2022-10-28T23:11:24.451Z,11.33
2022-10-28T23:13:55.723Z,11.27
2022-10-28T23:16:25.369Z,11.14
2022-10-28T23:18:54.387Z,11.12
2022-10-28T23:21:26.681Z,10.77
2022-10-28T23:24:00.357Z,10.66
2022-10-28T23:26:29.856Z,10.81
2022-10-28T23:28:59.833Z,10.77
2022-10-28T23:31:28.839Z,10.45
2022-10-28T23:33:59.384Z,10.75
2022-10-28T23:36:27.395Z,10.88
2022-10-28T23:38:57.449Z,10.74
2022-10-28T23:41:25.394Z,10.79
2022-10-28T23:43:53.234Z,10.83
2022-10-28T23:46:22.806Z,10.85
2022-10-28T23:48:51.167Z,10.93
2022-10-28T23:51:20.536Z,10.92
2022-10-28T23:53:48.560Z,10.71
2022-10-28T23:56:16.693Z,10.43
2022-10-28T23:58:44.719Z,11.00
